sensor_id;sensor_type;location;lat;lon;timestamp;P1;durP1;ratioP1;P2;durP2;ratioP2
56269;SDS011;42176;43.240;27.880;2024-03-23T00:52:00;8.77;;;4.85;;
56269;SDS011;42176;43.240;27.880;2024-03-23T00:54:01;8.77;;;4.25;;
56269;SDS011;42176;43.240;27.880;2024-03-23T00:56:03;8.15;;;4.20;;
56269;SDS011;42176;43.240;27.880;2024-03-23T00:58:05;16.48;;;7.53;;
56269;SDS011;42176;43.240;27.880;2024-03-23T01:00:06;11.50;;;5.53;;
56269;SDS011;42176;43.240;27.880;2024-03-23T01:02:10;13.63;;;6.80;;
56269;SDS011;42176;43.240;27.880;2024-03-23T01:04:10;9.88;;;4.35;;
56269;SDS011;42176;43.240;27.880;2024-03-23T01:06:11;7.30;;;3.85;;
56269;SDS011;42176;43.240;27.880;2024-03-23T01:08:11;9.73;;;5.47;;
56269;SDS011;42176;43.240;27.880;2024-03-23T01:10:12;11.75;;;6.15;;
56269;SDS011;42176;43.240;27.880;2024-03-23T01:12:14;10.93;;;6.20;;
56269;SDS011;42176;43.240;27.880;2024-03-23T01:14:15;10.35;;;4.95;;
56269;SDS011;42176;43.240;27.880;2024-03-23T01:16:15;11.77;;;6.03;;
56269;SDS011;42176;43.240;27.880;2024-03-23T01:18:16;12.23;;;5.88;;
56269;SDS011;42176;43.240;27.880;2024-03-23T01:20:16;9.95;;;6.15;;
56269;SDS011;42176;43.240;27.880;2024-03-23T01:22:17;8.48;;;3.63;;
56269;SDS011;42176;43.240;27.880;2024-03-23T01:24:17;7.78;;;4.57;;
56269;SDS011;42176;43.240;27.880;2024-03-23T01:26:18;11.68;;;5.65;;
56269;SDS011;42176;43.240;27.880;2024-03-23T01:28:19;9.65;;;4.78;;
56269;SDS011;42176;43.240;27.880;2024-03-23T01:30:22;11.57;;;6.43;;
56269;SDS011;42176;43.240;27.880;2024-03-23T01:32:23;13.10;;;7.65;;
56269;SDS011;42176;43.240;27.880;2024-03-23T01:34:23;14.13;;;8.25;;
56269;SDS011;42176;43.240;27.880;2024-03-23T01:36:25;11.32;;;5.20;;
56269;SDS011;42176;43.240;27.880;2024-03-23T01:38:25;16.27;;;8.23;;
56269;SDS011;42176;43.240;27.880;2024-03-23T01:40:26;11.20;;;7.03;;
56269;SDS011;42176;43.240;27.880;2024-03-23T01:42:27;16.15;;;7.78;;
56269;SDS011;42176;43.240;27.880;2024-03-23T01:44:28;11.55;;;6.38;;
56269;SDS011;42176;43.240;27.880;2024-03-23T01:46:28;9.52;;;4.22;;
56269;SDS011;42176;43.240;27.880;2024-03-23T01:48:29;12.00;;;6.72;;
56269;SDS011;42176;43.240;27.880;2024-03-23T01:50:30;13.35;;;6.72;;
56269;SDS011;42176;43.240;27.880;2024-03-23T01:52:33;13.63;;;7.15;;
56269;SDS011;42176;43.240;27.880;2024-03-23T01:54:34;18.67;;;8.10;;
56269;SDS011;42176;43.240;27.880;2024-03-23T01:56:36;11.38;;;4.30;;
56269;SDS011;42176;43.240;27.880;2024-03-23T01:58:36;14.43;;;6.90;;
56269;SDS011;42176;43.240;27.880;2024-03-23T02:00:37;13.13;;;6.43;;
56269;SDS011;42176;43.240;27.880;2024-03-23T02:02:44;11.57;;;5.88;;
56269;SDS011;42176;43.240;27.880;2024-03-23T02:04:45;13.18;;;6.35;;
56269;SDS011;42176;43.240;27.880;2024-03-23T02:06:45;7.38;;;3.53;;
56269;SDS011;42176;43.240;27.880;2024-03-23T02:08:46;11.57;;;4.47;;
56269;SDS011;42176;43.240;27.880;2024-03-23T02:10:47;12.95;;;6.63;;
56269;SDS011;42176;43.240;27.880;2024-03-23T02:12:49;12.38;;;6.70;;
56269;SDS011;42176;43.240;27.880;2024-03-23T02:14:50;13.40;;;6.22;;
56269;SDS011;42176;43.240;27.880;2024-03-23T02:16:50;12.30;;;5.57;;
56269;SDS011;42176;43.240;27.880;2024-03-23T02:18:51;9.98;;;5.03;;
56269;SDS011;42176;43.240;27.880;2024-03-23T02:20:51;12.43;;;7.15;;
56269;SDS011;42176;43.240;27.880;2024-03-23T02:22:53;14.25;;;6.68;;
56269;SDS011;42176;43.240;27.880;2024-03-23T02:24:53;11.05;;;6.30;;
56269;SDS011;42176;43.240;27.880;2024-03-23T02:26:54;8.35;;;4.15;;
56269;SDS011;42176;43.240;27.880;2024-03-23T02:28:54;8.30;;;4.50;;
56269;SDS011;42176;43.240;27.880;2024-03-23T02:30:55;15.32;;;7.55;;
56269;SDS011;42176;43.240;27.880;2024-03-23T02:32:55;12.65;;;6.97;;
56269;SDS011;42176;43.240;27.880;2024-03-23T02:34:56;11.45;;;6.47;;
56269;SDS011;42176;43.240;27.880;2024-03-23T02:36:57;13.27;;;6.45;;
56269;SDS011;42176;43.240;27.880;2024-03-23T02:38:57;10.77;;;4.65;;
56269;SDS011;42176;43.240;27.880;2024-03-23T02:41:02;11.40;;;5.90;;
56269;SDS011;42176;43.240;27.880;2024-03-23T02:43:04;13.18;;;7.20;;
56269;SDS011;42176;43.240;27.880;2024-03-23T02:45:04;12.80;;;7.13;;
56269;SDS011;42176;43.240;27.880;2024-03-23T02:47:05;9.25;;;3.92;;
56269;SDS011;42176;43.240;27.880;2024-03-23T02:49:06;12.20;;;5.05;;
56269;SDS011;42176;43.240;27.880;2024-03-23T02:51:07;10.75;;;4.53;;
56269;SDS011;42176;43.240;27.880;2024-03-23T02:53:07;13.80;;;6.72;;
56269;SDS011;42176;43.240;27.880;2024-03-23T02:55:08;18.27;;;6.80;;
56269;SDS011;42176;43.240;27.880;2024-03-23T02:57:09;14.88;;;7.05;;
56269;SDS011;42176;43.240;27.880;2024-03-23T02:59:09;12.52;;;5.68;;
56269;SDS011;42176;43.240;27.880;2024-03-23T03:01:10;10.02;;;5.53;;
56269;SDS011;42176;43.240;27.880;2024-03-23T03:03:10;15.63;;;7.05;;
56269;SDS011;42176;43.240;27.880;2024-03-23T03:05:11;14.18;;;6.22;;
56269;SDS011;42176;43.240;27.880;2024-03-23T03:07:12;13.07;;;6.50;;
56269;SDS011;42176;43.240;27.880;2024-03-23T03:09:13;15.27;;;7.32;;
56269;SDS011;42176;43.240;27.880;2024-03-23T03:11:14;10.88;;;5.82;;
56269;SDS011;42176;43.240;27.880;2024-03-23T03:13:15;14.35;;;6.95;;
56269;SDS011;42176;43.240;27.880;2024-03-23T03:15:16;17.98;;;8.02;;
56269;SDS011;42176;43.240;27.880;2024-03-23T03:17:16;14.40;;;7.47;;
56269;SDS011;42176;43.240;27.880;2024-03-23T03:19:17;14.65;;;7.20;;
56269;SDS011;42176;43.240;27.880;2024-03-23T03:21:17;13.40;;;3.85;;
56269;SDS011;42176;43.240;27.880;2024-03-23T03:23:19;12.93;;;6.53;;
56269;SDS011;42176;43.240;27.880;2024-03-23T03:25:19;15.95;;;6.40;;
56269;SDS011;42176;43.240;27.880;2024-03-23T03:27:20;11.38;;;6.68;;
56269;SDS011;42176;43.240;27.880;2024-03-23T03:29:22;13.70;;;7.05;;
56269;SDS011;42176;43.240;27.880;2024-03-23T03:31:23;10.35;;;4.72;;
56269;SDS011;42176;43.240;27.880;2024-03-23T03:33:23;12.93;;;6.20;;
56269;SDS011;42176;43.240;27.880;2024-03-23T03:35:24;10.95;;;5.95;;
56269;SDS011;42176;43.240;27.880;2024-03-23T03:37:25;9.38;;;5.97;;
56269;SDS011;42176;43.240;27.880;2024-03-23T03:39:25;11.48;;;6.78;;
56269;SDS011;42176;43.240;27.880;2024-03-23T03:41:26;11.85;;;4.35;;
56269;SDS011;42176;43.240;27.880;2024-03-23T03:43:27;5.28;;;3.20;;
56269;SDS011;42176;43.240;27.880;2024-03-23T03:45:27;11.77;;;7.10;;
56269;SDS011;42176;43.240;27.880;2024-03-23T03:47:28;13.05;;;5.97;;
56269;SDS011;42176;43.240;27.880;2024-03-23T03:49:28;14.38;;;8.15;;
56269;SDS011;42176;43.240;27.880;2024-03-23T03:51:29;9.43;;;4.75;;
56269;SDS011;42176;43.240;27.880;2024-03-23T03:53:30;9.23;;;4.82;;
56269;SDS011;42176;43.240;27.880;2024-03-23T03:55:31;14.73;;;7.35;;
56269;SDS011;42176;43.240;27.880;2024-03-23T03:57:32;14.30;;;6.82;;
56269;SDS011;42176;43.240;27.880;2024-03-23T03:59:32;13.02;;;7.10;;
56269;SDS011;42176;43.240;27.880;2024-03-23T04:01:33;8.73;;;5.60;;
56269;SDS011;42176;43.240;27.880;2024-03-23T04:03:34;12.68;;;6.03;;
56269;SDS011;42176;43.240;27.880;2024-03-23T04:05:34;12.17;;;7.43;;
56269;SDS011;42176;43.240;27.880;2024-03-23T04:07:35;13.60;;;6.72;;
56269;SDS011;42176;43.240;27.880;2024-03-23T04:09:35;16.05;;;7.40;;
56269;SDS011;42176;43.240;27.880;2024-03-23T04:11:36;11.55;;;5.30;;
56269;SDS011;42176;43.240;27.880;2024-03-23T04:13:36;11.07;;;5.53;;
56269;SDS011;42176;43.240;27.880;2024-03-23T04:15:37;14.43;;;7.28;;
56269;SDS011;42176;43.240;27.880;2024-03-23T04:17:38;13.48;;;7.72;;
56269;SDS011;42176;43.240;27.880;2024-03-23T04:19:39;13.90;;;8.00;;
56269;SDS011;42176;43.240;27.880;2024-03-23T04:21:40;6.32;;;3.92;;
56269;SDS011;42176;43.240;27.880;2024-03-23T04:23:41;9.83;;;4.80;;
56269;SDS011;42176;43.240;27.880;2024-03-23T04:25:41;12.43;;;4.82;;
56269;SDS011;42176;43.240;27.880;2024-03-23T04:27:42;13.75;;;7.10;;
56269;SDS011;42176;43.240;27.880;2024-03-23T04:29:46;11.20;;;6.45;;
56269;SDS011;42176;43.240;27.880;2024-03-23T04:31:48;14.73;;;6.75;;
56269;SDS011;42176;43.240;27.880;2024-03-23T04:33:48;11.50;;;5.72;;
56269;SDS011;42176;43.240;27.880;2024-03-23T04:35:49;9.68;;;4.20;;
56269;SDS011;42176;43.240;27.880;2024-03-23T04:37:50;13.63;;;6.68;;
56269;SDS011;42176;43.240;27.880;2024-03-23T04:39:52;17.13;;;7.35;;
56269;SDS011;42176;43.240;27.880;2024-03-23T04:41:52;14.48;;;7.70;;
56269;SDS011;42176;43.240;27.880;2024-03-23T04:43:53;13.02;;;5.32;;
56269;SDS011;42176;43.240;27.880;2024-03-23T04:45:54;12.32;;;5.00;;
56269;SDS011;42176;43.240;27.880;2024-03-23T04:47:54;12.25;;;5.57;;
56269;SDS011;42176;43.240;27.880;2024-03-23T04:49:55;12.02;;;6.25;;
56269;SDS011;42176;43.240;27.880;2024-03-23T04:51:56;11.25;;;6.63;;
56269;SDS011;42176;43.240;27.880;2024-03-23T04:53:56;10.63;;;5.55;;
56269;SDS011;42176;43.240;27.880;2024-03-23T04:55:57;11.40;;;4.93;;
56269;SDS011;42176;43.240;27.880;2024-03-23T04:57:59;14.25;;;6.00;;
56269;SDS011;42176;43.240;27.880;2024-03-23T04:59:59;12.45;;;7.15;;
56269;SDS011;42176;43.240;27.880;2024-03-23T05:02:00;3.17;;;2.47;;
56269;SDS011;42176;43.240;27.880;2024-03-23T05:04:01;13.43;;;4.75;;
56269;SDS011;42176;43.240;27.880;2024-03-23T05:06:01;11.90;;;4.87;;
56269;SDS011;42176;43.240;27.880;2024-03-23T05:08:02;14.60;;;7.38;;
56269;SDS011;42176;43.240;27.880;2024-03-23T05:10:03;10.18;;;5.35;;
56269;SDS011;42176;43.240;27.880;2024-03-23T05:12:03;10.07;;;4.90;;
56269;SDS011;42176;43.240;27.880;2024-03-23T05:14:04;13.03;;;5.57;;
56269;SDS011;42176;43.240;27.880;2024-03-23T05:16:05;9.37;;;5.07;;
56269;SDS011;42176;43.240;27.880;2024-03-23T05:18:06;11.30;;;5.63;;
56269;SDS011;42176;43.240;27.880;2024-03-23T05:20:06;17.27;;;5.33;;
56269;SDS011;42176;43.240;27.880;2024-03-23T05:22:09;8.20;;;5.10;;
56269;SDS011;42176;43.240;27.880;2024-03-23T05:24:10;9.37;;;5.53;;
56269;SDS011;42176;43.240;27.880;2024-03-23T05:26:12;17.52;;;6.45;;
56269;SDS011;42176;43.240;27.880;2024-03-23T05:28:12;14.87;;;6.00;;
56269;SDS011;42176;43.240;27.880;2024-03-23T05:30:13;11.27;;;6.20;;
56269;SDS011;42176;43.240;27.880;2024-03-23T05:32:14;15.30;;;6.50;;
56269;SDS011;42176;43.240;27.880;2024-03-23T05:34:14;10.73;;;6.07;;
56269;SDS011;42176;43.240;27.880;2024-03-23T05:36:15;15.27;;;6.57;;
56269;SDS011;42176;43.240;27.880;2024-03-23T05:38:16;12.20;;;6.63;;
56269;SDS011;42176;43.240;27.880;2024-03-23T05:40:16;15.27;;;6.00;;
56269;SDS011;42176;43.240;27.880;2024-03-23T05:42:17;9.27;;;5.87;;
56269;SDS011;42176;43.240;27.880;2024-03-23T05:44:18;15.95;;;7.75;;
56269;SDS011;42176;43.240;27.880;2024-03-23T05:46:18;10.43;;;7.00;;
56269;SDS011;42176;43.240;27.880;2024-03-23T05:48:19;13.83;;;7.43;;
56269;SDS011;42176;43.240;27.880;2024-03-23T05:50:19;15.23;;;7.30;;
56269;SDS011;42176;43.240;27.880;2024-03-23T05:52:20;20.20;;;9.33;;
56269;SDS011;42176;43.240;27.880;2024-03-23T05:54:21;20.80;;;9.65;;
56269;SDS011;42176;43.240;27.880;2024-03-23T05:56:21;18.83;;;11.87;;
56269;SDS011;42176;43.240;27.880;2024-03-23T05:58:22;22.95;;;11.80;;
56269;SDS011;42176;43.240;27.880;2024-03-23T06:00:22;21.02;;;10.00;;
56269;SDS011;42176;43.240;27.880;2024-03-23T06:02:26;14.57;;;7.57;;
56269;SDS011;42176;43.240;27.880;2024-03-23T06:04:26;13.33;;;7.57;;
56269;SDS011;42176;43.240;27.880;2024-03-23T06:06:27;17.30;;;8.05;;
56269;SDS011;42176;43.240;27.880;2024-03-23T06:08:30;17.25;;;6.93;;
56269;SDS011;42176;43.240;27.880;2024-03-23T06:10:30;10.63;;;6.90;;
56269;SDS011;42176;43.240;27.880;2024-03-23T06:12:34;12.98;;;7.03;;
56269;SDS011;42176;43.240;27.880;2024-03-23T06:14:34;17.90;;;9.18;;
56269;SDS011;42176;43.240;27.880;2024-03-23T06:16:35;11.95;;;7.32;;
56269;SDS011;42176;43.240;27.880;2024-03-23T06:18:35;9.35;;;6.32;;
56269;SDS011;42176;43.240;27.880;2024-03-23T06:20:36;10.88;;;6.18;;
56269;SDS011;42176;43.240;27.880;2024-03-23T06:22:37;12.70;;;6.72;;
56269;SDS011;42176;43.240;27.880;2024-03-23T06:24:37;13.95;;;6.68;;
56269;SDS011;42176;43.240;27.880;2024-03-23T06:26:38;12.60;;;6.75;;
56269;SDS011;42176;43.240;27.880;2024-03-23T06:28:40;11.57;;;6.68;;
56269;SDS011;42176;43.240;27.880;2024-03-23T06:30:41;12.73;;;7.05;;
56269;SDS011;42176;43.240;27.880;2024-03-23T06:32:42;15.52;;;7.35;;
56269;SDS011;42176;43.240;27.880;2024-03-23T06:34:42;9.60;;;7.38;;
56269;SDS011;42176;43.240;27.880;2024-03-23T06:36:43;10.30;;;6.90;;
56269;SDS011;42176;43.240;27.880;2024-03-23T06:38:44;9.23;;;6.22;;
56269;SDS011;42176;43.240;27.880;2024-03-23T06:40:45;7.30;;;5.25;;
56269;SDS011;42176;43.240;27.880;2024-03-23T06:42:47;12.80;;;5.25;;
56269;SDS011;42176;43.240;27.880;2024-03-23T06:44:48;10.68;;;6.05;;
56269;SDS011;42176;43.240;27.880;2024-03-23T06:46:49;8.05;;;4.85;;
56269;SDS011;42176;43.240;27.880;2024-03-23T06:48:50;10.48;;;5.07;;
56269;SDS011;42176;43.240;27.880;2024-03-23T06:50:54;8.38;;;5.10;;
56269;SDS011;42176;43.240;27.880;2024-03-23T06:52:57;6.75;;;5.60;;
56269;SDS011;42176;43.240;27.880;2024-03-23T06:54:58;6.20;;;4.88;;
56269;SDS011;42176;43.240;27.880;2024-03-23T06:58:59;8.10;;;4.57;;
56269;SDS011;42176;43.240;27.880;2024-03-23T07:01:00;6.55;;;4.40;;
56269;SDS011;42176;43.240;27.880;2024-03-23T07:05:01;7.50;;;4.40;;
56269;SDS011;42176;43.240;27.880;2024-03-23T07:07:04;6.70;;;4.82;;
56269;SDS011;42176;43.240;27.880;2024-03-23T07:09:04;6.03;;;4.85;;
56269;SDS011;42176;43.240;27.880;2024-03-23T07:11:05;5.57;;;4.88;;
56269;SDS011;42176;43.240;27.880;2024-03-23T07:15:06;6.13;;;4.93;;
56269;SDS011;42176;43.240;27.880;2024-03-23T07:17:08;5.00;;;4.20;;
56269;SDS011;42176;43.240;27.880;2024-03-23T07:19:08;4.95;;;3.90;;
56269;SDS011;42176;43.240;27.880;2024-03-23T07:21:09;4.82;;;3.95;;
56269;SDS011;42176;43.240;27.880;2024-03-23T07:23:09;9.52;;;4.78;;
56269;SDS011;42176;43.240;27.880;2024-03-23T07:27:10;4.60;;;3.70;;
56269;SDS011;42176;43.240;27.880;2024-03-23T07:31:12;4.97;;;3.83;;
56269;SDS011;42176;43.240;27.880;2024-03-23T07:33:14;7.25;;;4.15;;
56269;SDS011;42176;43.240;27.880;2024-03-23T07:35:15;6.75;;;4.43;;
56269;SDS011;42176;43.240;27.880;2024-03-23T07:39:15;8.40;;;3.80;;
56269;SDS011;42176;43.240;27.880;2024-03-23T07:41:20;10.73;;;3.90;;
56269;SDS011;42176;43.240;27.880;2024-03-23T07:43:21;9.57;;;4.47;;
56269;SDS011;42176;43.240;27.880;2024-03-23T07:45:22;7.68;;;4.07;;
56269;SDS011;42176;43.240;27.880;2024-03-23T07:49:23;7.50;;;4.60;;
56269;SDS011;42176;43.240;27.880;2024-03-23T07:53:25;5.82;;;4.32;;
56269;SDS011;42176;43.240;27.880;2024-03-23T07:55:26;5.80;;;4.25;;
56269;SDS011;42176;43.240;27.880;2024-03-23T07:59:27;7.07;;;4.90;;
56269;SDS011;42176;43.240;27.880;2024-03-23T08:01:28;6.07;;;4.55;;
56269;SDS011;42176;43.240;27.880;2024-03-23T08:03:29;7.32;;;4.70;;
56269;SDS011;42176;43.240;27.880;2024-03-23T08:07:30;22.20;;;5.43;;
56269;SDS011;42176;43.240;27.880;2024-03-23T08:11:31;6.93;;;4.77;;
56269;SDS011;42176;43.240;27.880;2024-03-23T08:13:35;5.88;;;4.10;;
56269;SDS011;42176;43.240;27.880;2024-03-23T08:15:37;15.38;;;5.20;;
56269;SDS011;42176;43.240;27.880;2024-03-23T08:19:38;5.37;;;4.70;;
56269;SDS011;42176;43.240;27.880;2024-03-23T08:23:39;5.30;;;4.07;;
56269;SDS011;42176;43.240;27.880;2024-03-23T08:27:40;6.80;;;3.87;;
56269;SDS011;42176;43.240;27.880;2024-03-23T08:29:41;6.05;;;4.57;;
56269;SDS011;42176;43.240;27.880;2024-03-23T08:33:42;40.07;;;6.33;;
56269;SDS011;42176;43.240;27.880;2024-03-23T08:35:43;8.75;;;5.13;;
56269;SDS011;42176;43.240;27.880;2024-03-23T08:38:03;9.90;;;6.00;;
56269;SDS011;42176;43.240;27.880;2024-03-23T08:40:04;9.50;;;5.93;;
56269;SDS011;42176;43.240;27.880;2024-03-23T08:42:04;7.47;;;5.78;;
56269;SDS011;42176;43.240;27.880;2024-03-23T08:44:05;7.88;;;5.72;;
56269;SDS011;42176;43.240;27.880;2024-03-23T08:46:06;11.50;;;5.03;;
56269;SDS011;42176;43.240;27.880;2024-03-23T08:48:11;10.82;;;4.35;;
56269;SDS011;42176;43.240;27.880;2024-03-23T08:50:12;8.68;;;5.05;;
56269;SDS011;42176;43.240;27.880;2024-03-23T08:52:12;8.63;;;4.93;;
56269;SDS011;42176;43.240;27.880;2024-03-23T08:54:13;6.25;;;4.53;;
56269;SDS011;42176;43.240;27.880;2024-03-23T08:56:13;6.95;;;4.20;;
56269;SDS011;42176;43.240;27.880;2024-03-23T08:58:14;8.23;;;5.30;;
56269;SDS011;42176;43.240;27.880;2024-03-23T09:00:17;10.88;;;4.60;;
56269;SDS011;42176;43.240;27.880;2024-03-23T09:02:18;7.75;;;4.25;;
56269;SDS011;42176;43.240;27.880;2024-03-23T09:04:18;8.50;;;4.33;;
56269;SDS011;42176;43.240;27.880;2024-03-23T09:06:19;6.20;;;4.37;;
56269;SDS011;42176;43.240;27.880;2024-03-23T09:08:19;8.90;;;4.80;;
56269;SDS011;42176;43.240;27.880;2024-03-23T09:10:20;7.15;;;4.57;;
56269;SDS011;42176;43.240;27.880;2024-03-23T09:12:22;8.27;;;5.00;;
56269;SDS011;42176;43.240;27.880;2024-03-23T09:14:23;4.97;;;4.13;;
56269;SDS011;42176;43.240;27.880;2024-03-23T09:16:23;7.33;;;3.70;;
56269;SDS011;42176;43.240;27.880;2024-03-23T09:18:24;8.57;;;4.55;;
56269;SDS011;42176;43.240;27.880;2024-03-23T09:20:25;9.43;;;6.07;;
56269;SDS011;42176;43.240;27.880;2024-03-23T09:22:25;7.03;;;4.43;;
56269;SDS011;42176;43.240;27.880;2024-03-23T09:24:26;7.10;;;4.07;;
56269;SDS011;42176;43.240;27.880;2024-03-23T09:26:26;7.90;;;4.23;;
56269;SDS011;42176;43.240;27.880;2024-03-23T09:28:27;6.93;;;3.87;;
56269;SDS011;42176;43.240;27.880;2024-03-23T09:30:28;6.28;;;3.83;;
56269;SDS011;42176;43.240;27.880;2024-03-23T09:32:28;6.57;;;4.10;;
56269;SDS011;42176;43.240;27.880;2024-03-23T09:34:29;7.57;;;4.10;;
56269;SDS011;42176;43.240;27.880;2024-03-23T09:36:30;13.20;;;5.45;;
56269;SDS011;42176;43.240;27.880;2024-03-23T09:38:31;6.70;;;3.80;;
56269;SDS011;42176;43.240;27.880;2024-03-23T09:40:32;6.60;;;4.10;;
56269;SDS011;42176;43.240;27.880;2024-03-23T09:42:33;7.93;;;4.10;;
56269;SDS011;42176;43.240;27.880;2024-03-23T09:44:35;5.87;;;4.13;;
56269;SDS011;42176;43.240;27.880;2024-03-23T09:46:36;24.15;;;4.38;;
56269;SDS011;42176;43.240;27.880;2024-03-23T09:48:38;9.20;;;4.18;;
56269;SDS011;42176;43.240;27.880;2024-03-23T09:50:39;14.57;;;4.55;;
56269;SDS011;42176;43.240;27.880;2024-03-23T09:54:42;11.95;;;4.05;;
56269;SDS011;42176;43.240;27.880;2024-03-23T09:56:42;6.10;;;3.97;;
56269;SDS011;42176;43.240;27.880;2024-03-23T09:58:43;5.77;;;4.17;;
56269;SDS011;42176;43.240;27.880;2024-03-23T10:00:44;5.73;;;3.50;;
56269;SDS011;42176;43.240;27.880;2024-03-23T10:02:45;10.98;;;3.97;;
56269;SDS011;42176;43.240;27.880;2024-03-23T10:04:46;5.53;;;3.97;;
56269;SDS011;42176;43.240;27.880;2024-03-23T10:06:46;6.53;;;3.63;;
56269;SDS011;42176;43.240;27.880;2024-03-23T10:08:47;6.53;;;4.07;;
56269;SDS011;42176;43.240;27.880;2024-03-23T10:10:47;5.40;;;3.73;;
56269;SDS011;42176;43.240;27.880;2024-03-23T10:12:48;6.70;;;4.47;;
56269;SDS011;42176;43.240;27.880;2024-03-23T10:14:52;11.48;;;5.35;;
56269;SDS011;42176;43.240;27.880;2024-03-23T10:16:53;7.97;;;4.57;;
56269;SDS011;42176;43.240;27.880;2024-03-23T10:21:10;6.70;;;4.00;;
56269;SDS011;42176;43.240;27.880;2024-03-23T10:23:17;9.60;;;4.78;;
56269;SDS011;42176;43.240;27.880;2024-03-23T10:25:22;8.57;;;4.45;;
56269;SDS011;42176;43.240;27.880;2024-03-23T10:27:23;9.15;;;4.80;;
56269;SDS011;42176;43.240;27.880;2024-03-23T10:29:23;6.77;;;4.60;;
56269;SDS011;42176;43.240;27.880;2024-03-23T10:31:28;11.13;;;4.65;;
56269;SDS011;42176;43.240;27.880;2024-03-23T10:35:30;7.55;;;4.22;;
56269;SDS011;42176;43.240;27.880;2024-03-23T10:37:31;9.30;;;4.47;;
56269;SDS011;42176;43.240;27.880;2024-03-23T10:39:33;7.15;;;4.25;;
56269;SDS011;42176;43.240;27.880;2024-03-23T10:41:35;8.95;;;4.07;;
56269;SDS011;42176;43.240;27.880;2024-03-23T10:43:37;6.80;;;3.60;;
56269;SDS011;42176;43.240;27.880;2024-03-23T10:45:38;9.73;;;4.13;;
56269;SDS011;42176;43.240;27.880;2024-03-23T10:47:39;9.20;;;5.17;;
56269;SDS011;42176;43.240;27.880;2024-03-23T10:49:39;6.50;;;4.57;;
56269;SDS011;42176;43.240;27.880;2024-03-23T10:51:40;7.60;;;3.43;;
56269;SDS011;42176;43.240;27.880;2024-03-23T10:53:41;10.13;;;4.90;;
56269;SDS011;42176;43.240;27.880;2024-03-23T10:55:42;7.95;;;4.22;;
56269;SDS011;42176;43.240;27.880;2024-03-23T10:57:44;8.18;;;4.15;;
56269;SDS011;42176;43.240;27.880;2024-03-23T10:59:49;5.95;;;3.15;;
56269;SDS011;42176;43.240;27.880;2024-03-23T11:01:54;7.97;;;4.03;;
56269;SDS011;42176;43.240;27.880;2024-03-23T11:03:56;3.95;;;2.70;;
56269;SDS011;42176;43.240;27.880;2024-03-23T11:05:56;5.10;;;3.53;;
56269;SDS011;42176;43.240;27.880;2024-03-23T11:07:57;5.50;;;2.90;;
56269;SDS011;42176;43.240;27.880;2024-03-23T11:09:58;5.80;;;3.47;;
56269;SDS011;42176;43.240;27.880;2024-03-23T11:14:23;5.05;;;3.05;;
56269;SDS011;42176;43.240;27.880;2024-03-23T11:16:28;5.35;;;3.58;;
56269;SDS011;42176;43.240;27.880;2024-03-23T11:18:37;7.15;;;3.67;;
56269;SDS011;42176;43.240;27.880;2024-03-23T11:20:38;17.47;;;3.87;;
56269;SDS011;42176;43.240;27.880;2024-03-23T11:22:45;9.70;;;6.17;;
56269;SDS011;42176;43.240;27.880;2024-03-23T11:24:51;3.53;;;2.67;;
56269;SDS011;42176;43.240;27.880;2024-03-23T11:26:52;9.33;;;2.93;;
56269;SDS011;42176;43.240;27.880;2024-03-23T11:29:08;5.27;;;3.10;;
56269;SDS011;42176;43.240;27.880;2024-03-23T11:31:10;4.07;;;2.75;;
56269;SDS011;42176;43.240;27.880;2024-03-23T11:33:11;5.75;;;3.13;;
56269;SDS011;42176;43.240;27.880;2024-03-23T11:35:28;3.83;;;2.65;;
56269;SDS011;42176;43.240;27.880;2024-03-23T11:37:31;3.97;;;3.03;;
56269;SDS011;42176;43.240;27.880;2024-03-23T11:39:31;6.00;;;3.53;;
56269;SDS011;42176;43.240;27.880;2024-03-23T11:41:32;8.33;;;4.40;;
56269;SDS011;42176;43.240;27.880;2024-03-23T11:43:32;4.00;;;2.53;;
56269;SDS011;42176;43.240;27.880;2024-03-23T11:45:34;3.57;;;2.60;;
56269;SDS011;42176;43.240;27.880;2024-03-23T11:47:35;7.88;;;4.13;;
56269;SDS011;42176;43.240;27.880;2024-03-23T11:49:36;6.37;;;2.80;;
56269;SDS011;42176;43.240;27.880;2024-03-23T11:51:40;5.43;;;3.03;;
56269;SDS011;42176;43.240;27.880;2024-03-23T11:53:41;5.53;;;3.40;;
56269;SDS011;42176;43.240;27.880;2024-03-23T11:55:42;6.70;;;3.03;;
56269;SDS011;42176;43.240;27.880;2024-03-23T11:57:46;8.45;;;4.07;;
56269;SDS011;42176;43.240;27.880;2024-03-23T11:59:49;5.63;;;3.15;;
56269;SDS011;42176;43.240;27.880;2024-03-23T12:01:50;5.00;;;3.33;;
56269;SDS011;42176;43.240;27.880;2024-03-23T12:03:50;5.20;;;3.27;;
56269;SDS011;42176;43.240;27.880;2024-03-23T12:05:51;8.03;;;2.97;;
56269;SDS011;42176;43.240;27.880;2024-03-23T12:08:14;3.13;;;2.40;;
56269;SDS011;42176;43.240;27.880;2024-03-23T12:10:22;5.10;;;2.63;;
56269;SDS011;42176;43.240;27.880;2024-03-23T12:12:23;6.17;;;3.20;;
56269;SDS011;42176;43.240;27.880;2024-03-23T12:14:25;6.22;;;3.53;;
56269;SDS011;42176;43.240;27.880;2024-03-23T12:16:26;3.23;;;2.33;;
56269;SDS011;42176;43.240;27.880;2024-03-23T12:18:28;3.40;;;2.47;;
56269;SDS011;42176;43.240;27.880;2024-03-23T12:20:28;3.43;;;2.40;;
56269;SDS011;42176;43.240;27.880;2024-03-23T12:22:29;4.90;;;2.90;;
56269;SDS011;42176;43.240;27.880;2024-03-23T12:24:30;5.27;;;3.70;;
56269;SDS011;42176;43.240;27.880;2024-03-23T12:26:34;8.85;;;3.40;;
56269;SDS011;42176;43.240;27.880;2024-03-23T12:28:34;3.20;;;2.17;;
56269;SDS011;42176;43.240;27.880;2024-03-23T12:30:35;8.40;;;2.73;;
56269;SDS011;42176;43.240;27.880;2024-03-23T12:32:39;7.80;;;3.38;;
56269;SDS011;42176;43.240;27.880;2024-03-23T12:34:40;4.17;;;3.17;;
56269;SDS011;42176;43.240;27.880;2024-03-23T12:36:41;5.38;;;2.30;;
56269;SDS011;42176;43.240;27.880;2024-03-23T12:38:42;4.47;;;2.80;;
56269;SDS011;42176;43.240;27.880;2024-03-23T12:40:48;7.93;;;2.42;;
56269;SDS011;42176;43.240;27.880;2024-03-23T12:42:49;4.10;;;2.92;;
56269;SDS011;42176;43.240;27.880;2024-03-23T12:44:49;4.07;;;2.23;;
56269;SDS011;42176;43.240;27.880;2024-03-23T12:46:50;4.27;;;2.53;;
56269;SDS011;42176;43.240;27.880;2024-03-23T12:48:50;2.27;;;2.00;;
56269;SDS011;42176;43.240;27.880;2024-03-23T12:50:54;6.23;;;2.67;;
56269;SDS011;42176;43.240;27.880;2024-03-23T12:52:55;3.00;;;2.42;;
56269;SDS011;42176;43.240;27.880;2024-03-23T12:54:55;5.47;;;2.10;;
56269;SDS011;42176;43.240;27.880;2024-03-23T12:56:56;6.38;;;2.38;;
56269;SDS011;42176;43.240;27.880;2024-03-23T12:58:57;4.03;;;2.30;;
56269;SDS011;42176;43.240;27.880;2024-03-23T13:00:58;4.87;;;3.30;;
56269;SDS011;42176;43.240;27.880;2024-03-23T13:02:59;2.97;;;2.20;;
56269;SDS011;42176;43.240;27.880;2024-03-23T13:04:59;7.80;;;3.30;;
56269;SDS011;42176;43.240;27.880;2024-03-23T13:07:00;5.07;;;3.20;;
56269;SDS011;42176;43.240;27.880;2024-03-23T13:09:01;4.27;;;2.47;;
56269;SDS011;42176;43.240;27.880;2024-03-23T13:11:02;11.50;;;3.05;;
56269;SDS011;42176;43.240;27.880;2024-03-23T13:13:03;3.92;;;2.67;;
56269;SDS011;42176;43.240;27.880;2024-03-23T13:15:04;8.40;;;3.67;;
56269;SDS011;42176;43.240;27.880;2024-03-23T13:17:05;4.88;;;3.25;;
56269;SDS011;42176;43.240;27.880;2024-03-23T13:19:06;11.95;;;4.95;;
56269;SDS011;42176;43.240;27.880;2024-03-23T13:21:07;6.77;;;4.57;;
56269;SDS011;42176;43.240;27.880;2024-03-23T13:23:07;8.90;;;5.33;;
56269;SDS011;42176;43.240;27.880;2024-03-23T13:25:08;7.85;;;4.53;;